createdAt,value
2018-12-06T00:08:46.426Z,7.07
2018-12-06T00:29:24.274Z,9.27
2018-12-06T00:49:59.667Z,8.90
2018-12-06T01:10:39.124Z,7.30
2018-12-06T01:31:15.318Z,8.73
2018-12-06T01:51:50.281Z,8.60
2018-12-06T02:12:27.701Z,8.97
2018-12-06T02:33:05.126Z,8.90
2018-12-06T02:53:41.323Z,10.57
2018-12-06T03:14:17.515Z,10.43
2018-12-06T03:34:53.894Z,9.57
2018-12-06T03:55:32.776Z,9.57
2018-12-06T04:16:11.020Z,9.60
2018-12-06T04:36:49.664Z,10.77
2018-12-06T04:57:26.681Z,10.43
2018-12-06T05:18:04.101Z,11.50
2018-12-06T05:38:41.934Z,11.33
2018-12-06T05:59:18.535Z,10.83
2018-12-06T06:19:53.500Z,10.40
2018-12-06T06:40:30.106Z,8.67
2018-12-06T07:01:06.300Z,7.37
2018-12-06T07:21:44.543Z,14.70
2018-12-06T07:42:18.877Z,2.67
2018-12-06T08:02:56.928Z,2.30
2018-12-06T08:23:36.411Z,3.73
2018-12-06T08:44:21.104Z,4.63
2018-12-06T09:04:53.704Z,4.73
2018-12-06T09:25:31.126Z,4.50
2018-12-06T09:46:09.448Z,4.53
2018-12-06T10:06:46.477Z,6.30
2018-12-06T10:27:24.628Z,6.57
2018-12-06T10:48:02.875Z,5.20
2018-12-06T11:08:44.514Z,4.83
2018-12-06T11:29:26.733Z,4.37
2018-12-06T11:50:02.920Z,5.13
2018-12-06T12:10:39.291Z,5.30
2018-12-06T12:31:17.362Z,5.47
2018-12-06T12:51:56.422Z,5.67
2018-12-06T13:12:33.028Z,6.50
2018-12-06T13:33:07.170Z,5.70
2018-12-06T13:53:46.238Z,4.60
2018-12-06T14:14:24.474Z,6.63
2018-12-06T14:34:59.850Z,4.07
2018-12-06T14:55:37.273Z,3.50
2018-12-06T15:16:13.466Z,3.70
2018-12-06T15:36:49.665Z,4.30
2018-12-06T15:57:24.627Z,5.20
2018-12-06T16:18:06.973Z,6.00
2018-12-06T16:38:45.213Z,6.00
2018-12-06T16:59:21.405Z,4.50
2018-12-06T17:19:55.959Z,4.23
2018-12-06T17:40:37.888Z,4.27
2018-12-06T18:01:16.542Z,4.20
2018-12-06T18:21:51.505Z,4.13
2018-12-06T18:42:28.924Z,3.70
2018-12-06T19:03:05.939Z,4.27
2018-12-06T19:23:42.138Z,4.90
2018-12-06T19:44:18.795Z,3.40
2018-12-06T20:04:57.059Z,4.17
2018-12-06T20:25:36.048Z,3.20
2018-12-06T20:46:12.241Z,2.13
2018-12-06T21:06:46.787Z,2.33
2018-12-06T21:27:25.048Z,1.30
2018-12-06T21:48:02.877Z,1.10
2018-12-06T22:08:41.528Z,1.17
2018-12-06T22:29:18.538Z,1.10
2018-12-06T22:49:55.968Z,1.30
2018-12-06T23:10:30.299Z,1.53
2018-12-06T23:31:08.354Z,1.50
2018-12-06T23:51:48.828Z,1.00
